Time;durP1;ratioP1;P1;durP2;ratioP2;P2;SDS_P1;SDS_P2;PMS_P1;PMS_P2;Temp;Humidity;BMP_temperature;BMP_pressure;BME280_temperature;BME280_humidity;BME280_pressure;Samples;Min_cycle;Max_cycle;Signal;HPM_P1;HPM_P2
2021/08/13 00:01:07;;;;;;;20.40;2.72;;;15.00;99.90;;;;;;6282039;22;20037;-91
2021/08/13 00:03:33;;;;;;;10.45;2.40;;;15.00;99.90;;;;;;6281795;22;20006;-91
2021/08/13 00:05:58;;;;;;;19.98;3.22;;;15.00;99.90;;;;;;6281670;22;20007;-91
2021/08/13 00:08:24;;;;;;;20.65;2.63;;;15.00;99.90;;;;;;6281218;22;20007;-92
2021/08/13 00:10:50;;;;;;;12.50;2.33;;;15.00;99.90;;;;;;6282284;22;20094;-91
2021/08/13 00:13:16;;;;;;;17.85;3.40;;;14.90;99.90;;;;;;6282024;22;20399;-91
2021/08/13 00:15:42;;;;;;;14.32;2.70;;;14.90;99.90;;;;;;6282375;22;20006;-90
2021/08/13 00:18:11;;;;;;;14.77;2.75;;;14.90;99.90;;;;;;6281758;22;20093;-91
2021/08/13 00:20:36;;;;;;;13.00;2.65;;;14.90;99.90;;;;;;6281910;22;20014;-92
2021/08/13 00:23:03;;;;;;;23.88;4.55;;;14.90;99.90;;;;;;6282230;22;20000;-90
2021/08/13 00:25:29;;;;;;;9.90;2.70;;;14.90;99.90;;;;;;6308926;22;20204;-91
2021/08/13 00:27:55;;;;;;;14.95;2.95;;;14.90;99.90;;;;;;6281504;22;20006;-92
2021/08/13 00:30:21;;;;;;;13.98;2.80;;;14.90;99.90;;;;;;6281733;22;20008;-91
2021/08/13 00:32:47;;;;;;;18.27;2.60;;;14.80;99.90;;;;;;6281796;22;20391;-92
2021/08/13 00:35:12;;;;;;;18.67;3.08;;;14.80;99.90;;;;;;6281399;22;20042;-91
2021/08/13 00:37:40;;;;;;;14.13;2.60;;;14.80;99.90;;;;;;6282760;22;20037;-92
2021/08/13 00:40:07;;;;;;;13.23;2.55;;;14.80;99.90;;;;;;6282037;22;20012;-92
2021/08/13 00:42:33;;;;;;;19.17;3.30;;;14.70;99.90;;;;;;6281810;22;20100;-90
2021/08/13 00:44:59;;;;;;;20.65;3.17;;;14.70;99.90;;;;;;6314045;22;20003;-91
2021/08/13 00:47:25;;;;;;;17.05;4.13;;;14.70;99.90;;;;;;6285039;22;20086;-91
2021/08/13 00:49:51;;;;;;;15.02;5.07;;;14.80;99.90;;;;;;6281516;22;20022;-91
2021/08/13 00:52:17;;;;;;;10.27;2.72;;;14.80;99.90;;;;;;6309777;22;20301;-91
2021/08/13 00:54:43;;;;;;;14.95;2.75;;;14.80;99.90;;;;;;6283061;22;20007;-91
2021/08/13 00:57:09;;;;;;;10.63;2.95;;;14.80;99.90;;;;;;6283179;22;20007;-91
2021/08/13 00:59:37;;;;;;;14.20;2.70;;;14.70;99.90;;;;;;6282668;22;20011;-91
2021/08/13 01:02:03;;;;;;;12.10;3.25;;;14.70;99.90;;;;;;6281582;22;20003;-91
2021/08/13 01:04:29;;;;;;;9.90;3.03;;;14.70;99.90;;;;;;6281977;22;20375;-91
2021/08/13 01:06:55;;;;;;;14.18;3.20;;;14.70;99.90;;;;;;6282744;22;19995;-89
2021/08/13 01:09:21;;;;;;;16.23;2.65;;;14.70;99.90;;;;;;6282532;22;20000;-90
2021/08/13 01:12:02;;;;;;;15.38;3.00;;;14.70;99.90;;;;;;6282561;22;20041;-90
2021/08/13 01:14:31;;;;;;;;;;;14.60;99.90;;;;;;6284615;22;19999;-92
2021/08/13 01:16:59;;;;;;;12.57;3.00;;;14.60;99.90;;;;;;6284565;22;20211;-91
2021/08/13 01:19:48;;;;;;;15.38;2.78;;;14.60;99.90;;;;;;6283172;22;20064;-89
2021/08/13 01:22:16;;;;;;;13.98;2.72;;;14.50;99.90;;;;;;6283543;22;20452;-91
2021/08/13 01:24:46;;;;;;;11.88;2.33;;;14.50;99.90;;;;;;6283183;22;19995;-90
2021/08/13 01:27:17;;;;;;;12.68;2.80;;;14.50;99.90;;;;;;6282685;22;20003;-91
2021/08/13 01:29:45;;;;;;;20.15;3.47;;;14.50;99.90;;;;;;6283910;22;20007;-91
2021/08/13 01:32:17;;;;;;;11.63;2.53;;;14.50;99.90;;;;;;6310485;22;20023;-91
2021/08/13 01:34:47;;;;;;;13.82;2.67;;;14.50;99.90;;;;;;6313530;22;20003;-91
2021/08/13 01:37:22;;;;;;;10.73;2.85;;;14.50;99.90;;;;;;6293473;22;19995;-93
2021/08/13 01:39:50;;;;;;;18.33;2.83;;;14.50;99.90;;;;;;6312847;22;20007;-91
2021/08/13 01:42:16;;;;;;;12.80;2.47;;;14.50;99.90;;;;;;6284209;22;20010;-91
2021/08/13 01:44:43;;;;;;;14.52;2.97;;;14.50;99.90;;;;;;6283195;22;20011;-90
2021/08/13 01:47:10;;;;;;;11.60;2.72;;;14.50;99.90;;;;;;6283174;22;20014;-91
2021/08/13 01:49:36;;;;;;;14.68;3.08;;;14.50;99.90;;;;;;6310504;22;20002;-91
2021/08/13 01:52:04;;;;;;;11.65;2.08;;;14.50;99.90;;;;;;6309924;22;20003;-91
2021/08/13 01:54:33;;;;;;;11.57;2.58;;;14.50;99.90;;;;;;6282449;22;20003;-91
2021/08/13 01:56:59;;;;;;;13.27;3.22;;;14.60;99.90;;;;;;6282342;22;20003;-91
2021/08/13 01:59:24;;;;;;;16.85;3.45;;;14.60;99.90;;;;;;6309755;22;20004;-91
2021/08/13 02:01:51;;;;;;;15.40;3.17;;;14.60;99.90;;;;;;6309782;22;20053;-91
2021/08/13 02:04:20;;;;;;;12.27;2.47;;;14.60;99.90;;;;;;6282500;22;20034;-91
2021/08/13 02:06:48;;;;;;;15.60;3.10;;;14.60;99.90;;;;;;6309354;22;20465;-91
2021/08/13 02:09:15;;;;;;;14.68;2.47;;;14.60;99.90;;;;;;6282540;22;19999;-91
2021/08/13 02:11:45;;;;;;;14.30;2.85;;;14.60;99.90;;;;;;6285102;22;20003;-91
2021/08/13 02:14:11;;;;;;;8.63;2.70;;;14.60;99.90;;;;;;6287578;22;20007;-91
2021/08/13 02:16:39;;;;;;;14.30;3.70;;;14.60;99.90;;;;;;6283341;22;20053;-91
2021/08/13 02:19:14;;;;;;;18.85;3.10;;;14.60;99.90;;;;;;6282906;22;20065;-92
2021/08/13 02:21:46;;;;;;;14.30;2.80;;;14.60;99.90;;;;;;6291474;22;20038;-92
2021/08/13 02:24:12;;;;;;;14.13;3.20;;;14.60;99.90;;;;;;6295246;22;20026;-92
2021/08/13 02:26:38;;;;;;;16.35;3.30;;;14.50;99.90;;;;;;6292362;22;20003;-92
2021/08/13 02:29:04;;;;;;;14.20;2.63;;;14.50;99.90;;;;;;6291797;22;20316;-92
2021/08/13 02:31:30;;;;;;;13.45;2.80;;;14.50;99.90;;;;;;6282942;22;20014;-93
2021/08/13 02:33:56;;;;;;;22.35;3.20;;;14.50;99.90;;;;;;6282579;22;20504;-92
2021/08/13 02:36:30;;;;;;;12.38;2.50;;;14.40;99.90;;;;;;6282168;22;20015;-92
2021/08/13 02:39:09;;;;;;;14.27;2.83;;;14.40;99.90;;;;;;6282293;22;20014;-92
2021/08/13 02:41:37;;;;;;;16.50;3.35;;;14.40;99.90;;;;;;6309469;22;20030;-91
2021/08/13 02:44:05;;;;;;;18.23;3.00;;;14.40;99.90;;;;;;6309940;22;20482;-93
2021/08/13 02:46:36;;;;;;;15.18;2.65;;;14.40;99.90;;;;;;6281899;22;20061;-92
2021/08/13 02:49:03;;;;;;;;;;;14.40;99.90;;;;;;6282568;22;19995;-92
2021/08/13 02:51:32;;;;;;;11.75;2.72;;;14.30;99.90;;;;;;6282152;22;19902;-91
2021/08/13 02:53:58;;;;;;;14.20;2.90;;;14.30;99.90;;;;;;6281975;22;19999;-91
2021/08/13 02:56:27;;;;;;;16.02;2.50;;;14.20;99.90;;;;;;6281321;22;20051;-91
2021/08/13 02:58:58;;;;;;;23.58;2.97;;;14.20;99.90;;;;;;6280620;22;20441;-92
2021/08/13 03:01:27;;;;;;;14.55;3.13;;;14.20;99.90;;;;;;6281515;22;20012;-92
2021/08/13 03:03:53;;;;;;;21.15;3.40;;;14.20;99.90;;;;;;6281719;22;20453;-92
2021/08/13 03:06:22;;;;;;;12.25;2.28;;;14.20;99.90;;;;;;6308517;22;20004;-92
2021/08/13 03:08:48;;;;;;;15.95;3.20;;;14.10;99.90;;;;;;6256014;22;20019;-92
2021/08/13 03:11:16;;;;;;;15.15;2.83;;;14.20;99.90;;;;;;6281524;22;20141;-92
2021/08/13 03:13:43;;;;;;;16.27;2.45;;;14.10;99.90;;;;;;6281509;22;20011;-92
2021/08/13 03:16:11;;;;;;;14.98;2.47;;;14.10;99.90;;;;;;6281166;22;20484;-92
2021/08/13 03:18:39;;;;;;;17.88;3.35;;;14.10;99.90;;;;;;6280918;22;19999;-92
2021/08/13 03:21:08;;;;;;;18.83;2.38;;;14.00;99.90;;;;;;6308392;22;20039;-92
2021/08/13 03:23:34;;;;;;;20.15;2.53;;;14.00;99.90;;;;;;6307591;22;20056;-93
2021/08/13 03:26:00;;;;;;;9.95;2.25;;;14.00;99.90;;;;;;6281669;22;20446;-92
2021/08/13 03:28:25;;;;;;;20.38;2.95;;;14.00;99.90;;;;;;6282209;22;20000;-92
2021/08/13 03:30:51;;;;;;;12.48;2.55;;;14.00;99.90;;;;;;6281764;22;20003;-92
2021/08/13 03:33:18;;;;;;;25.35;3.28;;;13.90;99.90;;;;;;6308875;22;20029;-92
2021/08/13 03:35:44;;;;;;;11.65;2.40;;;13.90;99.90;;;;;;6281218;22;20016;-91
2021/08/13 03:38:11;;;;;;;14.20;3.17;;;13.90;99.90;;;;;;6282224;22;20007;-93
2021/08/13 03:40:37;;;;;;;13.93;2.70;;;13.90;99.90;;;;;;6319028;22;20018;-92
2021/08/13 03:43:03;;;;;;;14.93;3.03;;;13.90;99.90;;;;;;6285257;22;20004;-92
2021/08/13 03:45:29;;;;;;;18.42;2.95;;;13.90;99.90;;;;;;6308989;22;20021;-91
2021/08/13 03:47:54;;;;;;;16.60;2.67;;;13.90;99.90;;;;;;6281836;22;19999;-91
2021/08/13 03:50:20;;;;;;;13.77;2.78;;;13.90;99.90;;;;;;6281747;22;20007;-92
2021/08/13 03:52:46;;;;;;;17.52;3.00;;;13.90;99.90;;;;;;6281843;22;20014;-92
2021/08/13 03:55:13;;;;;;;15.60;2.92;;;13.90;99.90;;;;;;6281572;22;20378;-92
2021/08/13 03:57:40;;;;;;;16.92;2.35;;;13.90;99.90;;;;;;6281250;22;20061;-92
2021/08/13 04:00:07;;;;;;;24.48;3.10;;;13.80;99.90;;;;;;6281351;22;20045;-92
2021/08/13 04:02:33;;;;;;;18.60;2.72;;;13.80;99.90;;;;;;6256283;22;20029;-92
2021/08/13 04:04:59;;;;;;;19.23;2.95;;;13.80;99.90;;;;;;6281525;22;20011;-91
2021/08/13 04:07:24;;;;;;;16.65;2.58;;;13.80;99.90;;;;;;6281437;22;20007;-92
2021/08/13 04:09:50;;;;;;;12.02;2.50;;;13.80;99.90;;;;;;6308674;22;20007;-91
2021/08/13 04:12:15;;;;;;;18.23;2.92;;;13.80;99.90;;;;;;6308331;22;20418;-91
2021/08/13 04:14:41;;;;;;;15.30;2.85;;;13.80;99.90;;;;;;6281476;22;20003;-91
2021/08/13 04:17:09;;;;;;;17.23;2.88;;;13.70;99.90;;;;;;6281462;22;20053;-92
2021/08/13 04:19:35;;;;;;;13.57;2.80;;;13.70;99.90;;;;;;6308531;22;20010;-92
2021/08/13 04:22:02;;;;;;;22.73;4.35;;;13.70;99.90;;;;;;6281979;22;20335;-91
2021/08/13 04:24:28;;;;;;;12.32;2.55;;;13.70;99.90;;;;;;6308398;22;20006;-91
2021/08/13 04:26:53;;;;;;;17.80;3.22;;;13.70;99.90;;;;;;6308824;22;20007;-92
2021/08/13 04:29:19;;;;;;;17.27;2.40;;;13.60;99.90;;;;;;6281514;22;20082;-92
2021/08/13 04:31:45;;;;;;;17.70;2.40;;;13.60;99.90;;;;;;6281539;22;20011;-92
2021/08/13 04:34:11;;;;;;;23.27;2.95;;;13.60;99.90;;;;;;6281293;22;20010;-92
2021/08/13 04:36:36;;;;;;;19.08;3.10;;;13.60;99.90;;;;;;6280773;22;20014;-92
2021/08/13 04:39:02;;;;;;;19.08;3.67;;;13.60;99.90;;;;;;6281374;22;20011;-92
2021/08/13 04:41:28;;;;;;;13.98;2.75;;;13.60;99.90;;;;;;6282385;22;20121;-91
2021/08/13 04:43:54;;;;;;;20.42;3.08;;;13.50;99.90;;;;;;6282230;22;19999;-92
2021/08/13 04:46:19;;;;;;;17.40;2.63;;;13.50;99.90;;;;;;6281347;22;20014;-91
2021/08/13 04:48:45;;;;;;;16.38;2.53;;;13.50;99.90;;;;;;6281500;22;20014;-92
2021/08/13 04:51:10;;;;;;;11.82;3.13;;;13.50;99.90;;;;;;6281239;22;20004;-91
2021/08/13 04:53:36;;;;;;;13.73;2.58;;;13.60;99.90;;;;;;6281426;22;20011;-90
2021/08/13 04:56:05;;;;;;;20.90;3.22;;;13.60;99.90;;;;;;6281408;22;20010;-91
2021/08/13 04:58:30;;;;;;;15.60;2.78;;;13.60;99.90;;;;;;6281354;22;20377;-92
2021/08/13 05:00:56;;;;;;;22.13;4.07;;;13.60;99.90;;;;;;6281855;22;20015;-92
2021/08/13 05:03:22;;;;;;;10.98;2.28;;;13.60;99.90;;;;;;6281998;22;19999;-93
2021/08/13 05:05:48;;;;;;;12.52;2.50;;;13.70;99.90;;;;;;6282641;22;20012;-92
2021/08/13 05:08:13;;;;;;;12.13;2.30;;;13.70;99.90;;;;;;6288473;22;19999;-92
2021/08/13 05:10:42;;;;;;;25.02;3.80;;;13.70;99.90;;;;;;6292572;22;20014;-91
2021/08/13 05:13:08;;;;;;;19.95;3.05;;;13.70;99.90;;;;;;6289230;22;20063;-92
2021/08/13 05:15:33;;;;;;;19.27;3.10;;;13.60;99.90;;;;;;6287569;22;20003;-92
2021/08/13 05:17:59;;;;;;;20.10;2.92;;;13.70;99.90;;;;;;6311240;22;20003;-91
2021/08/13 05:20:26;;;;;;;24.77;3.00;;;13.60;99.90;;;;;;6282070;22;20019;-91
2021/08/13 05:22:52;;;;;;;17.15;3.38;;;13.60;99.90;;;;;;6281547;22;20381;-91
2021/08/13 05:25:17;;;;;;;11.25;3.20;;;13.60;99.90;;;;;;6281249;22;20003;-92
2021/08/13 05:27:46;;;;;;;24.05;3.40;;;13.60;99.90;;;;;;6281743;22;20003;-92
2021/08/13 05:30:13;;;;;;;14.05;3.05;;;13.60;99.90;;;;;;6281639;22;20026;-91
2021/08/13 05:32:40;;;;;;;10.60;2.15;;;13.60;99.90;;;;;;6281310;22;20002;-92
2021/08/13 05:35:08;;;;;;;29.65;4.07;;;13.60;99.90;;;;;;6281072;22;20019;-92
2021/08/13 05:37:34;;;;;;;21.40;2.80;;;13.60;99.90;;;;;;6308348;22;20446;-92
2021/08/13 05:40:00;;;;;;;16.55;3.65;;;13.60;99.90;;;;;;6280912;22;20014;-92
2021/08/13 05:42:25;;;;;;;12.32;2.67;;;13.60;99.90;;;;;;6281173;22;20035;-91
2021/08/13 05:44:51;;;;;;;11.95;2.53;;;13.60;99.90;;;;;;6307929;22;20023;-92
2021/08/13 05:47:18;;;;;;;13.63;2.70;;;13.60;99.90;;;;;;6281149;22;20060;-93
2021/08/13 05:49:44;;;;;;;17.63;3.33;;;13.70;99.90;;;;;;6280888;22;20065;-92
2021/08/13 05:52:10;;;;;;;16.58;2.78;;;13.70;99.90;;;;;;6280887;22;20007;-91
2021/08/13 05:54:35;;;;;;;16.52;2.95;;;13.70;99.90;;;;;;6281102;22;20003;-92
2021/08/13 05:57:01;;;;;;;12.60;2.55;;;13.80;99.90;;;;;;6308334;22;19999;-91
2021/08/13 05:59:27;;;;;;;17.95;3.90;;;13.80;99.90;;;;;;6283104;22;20034;-91
2021/08/13 06:01:55;;;;;;;15.65;2.47;;;13.80;99.90;;;;;;6283425;22;20014;-92
2021/08/13 06:04:21;;;;;;;22.30;3.08;;;13.80;99.90;;;;;;6309652;22;20023;-92
2021/08/13 06:06:46;;;;;;;18.55;3.38;;;13.90;99.90;;;;;;6282007;22;20389;-92
2021/08/13 06:09:12;;;;;;;18.25;3.95;;;13.90;99.90;;;;;;6308996;22;20033;-91
2021/08/13 06:11:38;;;;;;;13.25;2.60;;;13.90;99.90;;;;;;6281840;22;20007;-92
2021/08/13 06:14:04;;;;;;;18.90;3.38;;;14.00;99.90;;;;;;6281655;22;20026;-91
2021/08/13 06:16:30;;;;;;;21.38;3.45;;;13.90;99.90;;;;;;6309321;22;20062;-92
2021/08/13 06:18:55;;;;;;;26.80;3.97;;;13.90;99.90;;;;;;6309216;22;20002;-90
2021/08/13 06:21:28;;;;;;;11.13;3.42;;;13.90;99.90;;;;;;6308453;22;20011;-89
2021/08/13 06:23:53;;;;;;;16.77;4.00;;;13.90;99.90;;;;;;6281762;22;20513;-91
2021/08/13 06:26:19;;;;;;;19.92;3.20;;;13.90;99.90;;;;;;6281945;22;20083;-90
2021/08/13 06:28:48;;;;;;;21.80;3.78;;;13.90;99.90;;;;;;6282070;22;20057;-91
2021/08/13 06:31:16;;;;;;;15.27;3.70;;;13.90;99.90;;;;;;6308580;22;19999;-90
2021/08/13 06:33:50;;;;;;;23.48;4.05;;;13.90;99.90;;;;;;6281584;22;20007;-91
2021/08/13 06:36:15;;;;;;;24.15;3.15;;;13.90;99.90;;;;;;6281740;22;20015;-91
2021/08/13 06:38:41;;;;;;;21.50;3.20;;;13.90;99.90;;;;;;6288467;22;20038;-90
2021/08/13 06:41:06;;;;;;;16.02;2.72;;;13.90;99.90;;;;;;6283197;22;20496;-91
2021/08/13 06:43:32;;;;;;;20.33;3.38;;;14.00;99.90;;;;;;6282426;22;20509;-91
2021/08/13 06:45:58;;;;;;;14.50;3.25;;;14.00;99.90;;;;;;6282168;22;20003;-90
2021/08/13 06:48:23;;;;;;;22.65;3.38;;;14.00;99.90;;;;;;6281701;22;20086;-90
2021/08/13 06:50:49;;;;;;;20.30;3.17;;;14.10;99.90;;;;;;6281853;22;20192;-92
2021/08/13 06:53:15;;;;;;;16.17;2.88;;;14.10;99.90;;;;;;6280979;22;20499;-92
2021/08/13 06:55:40;;;;;;;18.83;3.17;;;14.10;99.90;;;;;;6280894;22;20003;-91
2021/08/13 06:58:06;;;;;;;17.42;3.00;;;14.10;99.90;;;;;;6280573;22;20010;-91
2021/08/13 07:00:32;;;;;;;21.05;3.13;;;14.10;99.90;;;;;;6279413;22;20335;-92
2021/08/13 07:02:57;;;;;;;13.98;2.90;;;14.10;99.90;;;;;;6279106;22;19999;-88
2021/08/13 07:05:23;;;;;;;17.50;3.50;;;14.10;99.90;;;;;;6279060;22;20003;-89
2021/08/13 07:07:49;;;;;;;16.85;2.60;;;14.10;99.90;;;;;;6279584;22;20087;-92
2021/08/13 07:10:15;;;;;;;14.88;3.83;;;14.20;99.90;;;;;;6278729;22;20007;-89
2021/08/13 07:12:41;;;;;;;27.10;3.90;;;14.20;99.90;;;;;;6280312;22;20014;-93
2021/08/13 07:15:09;;;;;;;18.13;3.63;;;14.20;99.90;;;;;;6280859;22;20090;-94
2021/08/13 07:17:36;;;;;;;19.45;4.05;;;14.20;99.90;;;;;;6281106;22;20007;-92
2021/08/13 07:20:03;;;;;;;20.17;2.80;;;14.20;99.90;;;;;;6281119;22;20023;-92
2021/08/13 07:22:28;;;;;;;17.73;2.55;;;14.30;99.90;;;;;;6281521;22;20007;-93
2021/08/13 07:24:54;;;;;;;15.05;3.03;;;14.40;99.90;;;;;;6280785;22;20442;-93
2021/08/13 07:27:20;;;;;;;17.88;2.83;;;14.50;99.90;;;;;;6282933;22;20004;-92
2021/08/13 07:29:46;;;;;;;15.20;2.60;;;14.60;99.90;;;;;;6282563;22;19999;-94
2021/08/13 07:32:11;;;;;;;20.48;2.78;;;14.70;99.90;;;;;;6281136;22;20018;-92
2021/08/13 07:34:37;;;;;;;17.98;2.60;;;14.80;99.90;;;;;;6280736;22;20014;-92
2021/08/13 13:10:37;;;;;;;7.57;1.40;;;24.60;55.60;;;;;;6307442;22;20033;-95
2021/08/13 13:56:33;;;;;;;9.02;1.48;;;25.30;53.10;;;;;;6287941;22;20563;-95
2021/08/13 13:58:58;;;;;;;7.10;1.40;;;25.20;52.90;;;;;;6309290;22;20023;-95
2021/08/13 14:06:48;;;;;;;5.72;1.85;;;25.10;53.10;;;;;;6285600;22;20537;-95
2021/08/13 14:09:16;;;;;;;5.65;1.67;;;25.10;53.40;;;;;;6291607;22;20014;-95
2021/08/13 14:14:21;;;;;;;9.85;1.75;;;25.10;53.70;;;;;;6308022;22;20029;-93
2021/08/13 14:29:56;;;;;;;7.40;1.48;;;25.60;53.90;;;;;;6225055;22;20023;-93
2021/08/13 14:32:22;;;;;;;8.45;1.67;;;25.60;53.90;;;;;;6363329;22;20370;-96
2021/08/13 14:34:48;;;;;;;10.23;2.08;;;25.60;54.10;;;;;;6306415;22;20094;-96
2021/08/13 14:37:13;;;;;;;7.57;1.40;;;25.40;54.10;;;;;;6330055;22;20003;-95
2021/08/13 14:39:39;;;;;;;7.68;1.80;;;25.20;54.40;;;;;;6329148;22;20029;-96
2021/08/13 14:42:09;;;;;;;7.35;1.23;;;25.00;54.80;;;;;;6332045;22;20003;-95
2021/08/13 14:44:36;;;;;;;5.50;1.13;;;24.80;55.70;;;;;;6355642;22;19999;-96
2021/08/13 14:47:03;;;;;;;3.40;1.38;;;24.40;56.50;;;;;;6312201;22;19996;-96
2021/08/13 14:49:31;;;;;;;4.55;1.40;;;24.10;57.60;;;;;;6262465;22;20032;-95
2021/08/13 14:51:57;;;;;;;4.88;1.30;;;24.10;58.50;;;;;;6295823;22;20015;-95
2021/08/13 14:54:24;;;;;;;6.75;1.65;;;24.30;59.00;;;;;;6296276;22;20427;-94
2021/08/13 14:56:51;;;;;;;5.45;1.50;;;24.60;59.00;;;;;;6294115;22;20026;-94
2021/08/13 14:59:17;;;;;;;5.50;1.25;;;24.70;58.90;;;;;;6291692;22;20000;-96
2021/08/13 15:01:43;;;;;;;3.30;1.38;;;24.90;58.50;;;;;;6296756;22;20035;-95
2021/08/13 15:04:10;;;;;;;4.88;1.20;;;24.90;58.50;;;;;;6293849;22;20054;-95
2021/08/13 15:06:39;;;;;;;2.25;0.50;;;25.10;58.80;;;;;;6277587;22;20008;-94
2021/08/13 15:09:05;;;;;;;4.38;0.93;;;25.10;58.70;;;;;;6277559;22;20000;-94
2021/08/13 15:11:38;;;;;;;4.75;1.50;;;25.00;58.80;;;;;;6273041;22;20561;-94
2021/08/13 15:14:08;;;;;;;4.55;1.40;;;24.90;58.90;;;;;;6274866;22;20091;-93
2021/08/13 15:16:40;;;;;;;5.05;1.15;;;24.90;59.40;;;;;;6277029;22;20003;-93
2021/08/13 15:19:09;;;;;;;6.35;1.30;;;24.90;59.50;;;;;;6274021;22;20049;-93
2021/08/13 15:21:40;;;;;;;6.78;1.50;;;24.90;59.40;;;;;;6277459;22;20016;-94
2021/08/13 15:24:13;;;;;;;3.22;0.98;;;24.90;59.60;;;;;;6282056;22;19999;-95
2021/08/13 15:26:40;;;;;;;5.55;1.20;;;24.80;60.10;;;;;;6282865;22;20004;-96
2021/08/13 15:29:06;;;;;;;6.97;1.30;;;24.90;60.00;;;;;;6285751;22;20008;-95
2021/08/13 15:31:32;;;;;;;5.13;1.20;;;25.00;60.40;;;;;;6288602;22;20026;-96
2021/08/13 15:33:58;;;;;;;4.57;1.27;;;25.10;60.60;;;;;;6287219;22;20439;-94
2021/08/13 15:36:24;;;;;;;6.03;1.30;;;25.20;60.50;;;;;;6290173;22;20098;-94
2021/08/13 15:38:51;;;;;;;2.55;1.63;;;25.10;60.40;;;;;;6264329;22;20041;-96
2021/08/13 15:41:18;;;;;;;5.20;1.08;;;25.00;60.90;;;;;;6239109;22;20019;-95
2021/08/13 15:43:47;;;;;;;2.88;1.38;;;25.00;61.20;;;;;;6284857;22;20030;-96
2021/08/13 15:46:13;;;;;;;3.38;0.88;;;25.00;61.10;;;;;;6281439;22;20012;-93
2021/08/13 15:48:38;;;;;;;4.80;1.30;;;25.10;61.20;;;;;;6277324;22;20444;-93
2021/08/13 15:51:04;;;;;;;6.47;1.55;;;25.30;61.20;;;;;;6278145;22;20011;-93
2021/08/13 15:53:31;;;;;;;6.10;1.35;;;25.30;60.60;;;;;;6278119;22;20004;-93
2021/08/13 15:55:57;;;;;;;4.20;1.15;;;25.40;60.90;;;;;;6280976;22;20424;-94
2021/08/13 15:58:22;;;;;;;4.57;1.30;;;25.30;60.60;;;;;;6281855;22;20042;-93
2021/08/13 16:00:50;;;;;;;5.43;1.30;;;25.10;60.60;;;;;;6278647;22;20098;-95
2021/08/13 16:03:16;;;;;;;5.00;1.35;;;24.90;61.20;;;;;;6277858;22;20082;-95
2021/08/13 16:05:42;;;;;;;5.65;1.27;;;24.80;61.60;;;;;;6279036;22;20004;-94
2021/08/13 16:08:07;;;;;;;5.93;1.52;;;24.60;62.00;;;;;;6278744;22;20082;-93
2021/08/13 16:10:33;;;;;;;4.72;1.10;;;24.50;62.70;;;;;;6278377;22;20046;-94
2021/08/13 16:12:59;;;;;;;4.18;1.23;;;24.40;63.50;;;;;;6276890;22;20308;-93
2021/08/13 16:15:25;;;;;;;6.55;1.40;;;24.30;64.00;;;;;;6278722;22;20134;-93
2021/08/13 16:17:51;;;;;;;6.07;1.20;;;24.20;64.50;;;;;;6277377;22;20004;-94
2021/08/13 16:20:18;;;;;;;9.45;1.40;;;24.10;64.70;;;;;;6277712;22;20061;-95
2021/08/13 16:22:44;;;;;;;5.32;1.40;;;24.10;65.10;;;;;;6277214;22;20077;-94
2021/08/13 16:25:10;;;;;;;5.43;1.40;;;24.30;65.40;;;;;;6278060;22;20007;-94
2021/08/13 16:27:36;;;;;;;5.40;1.33;;;24.30;64.60;;;;;;6278221;22;20067;-94
2021/08/13 16:30:03;;;;;;;7.78;1.30;;;24.30;64.50;;;;;;6280113;22;20023;-93
2021/08/13 16:32:29;;;;;;;6.60;1.63;;;24.20;64.70;;;;;;6279739;22;19996;-92
2021/08/13 16:34:54;;;;;;;5.10;1.52;;;24.30;65.10;;;;;;6282609;22;20035;-95
2021/08/13 16:37:20;;;;;;;4.55;1.20;;;24.20;65.10;;;;;;6278342;22;20003;-94
2021/08/13 16:39:45;;;;;;;7.50;1.50;;;24.10;65.40;;;;;;6279547;22;20015;-93
2021/08/13 16:42:11;;;;;;;2.20;0.90;;;23.80;66.00;;;;;;6280475;22;20027;-94
2021/08/13 16:44:37;;;;;;;6.00;1.25;;;23.60;66.30;;;;;;6280295;22;20466;-94
2021/08/13 16:47:03;;;;;;;5.05;1.50;;;23.40;66.50;;;;;;6286622;22;20308;-94
2021/08/13 16:49:29;;;;;;;3.97;1.48;;;23.20;67.00;;;;;;6292083;22;20008;-94
2021/08/13 16:51:54;;;;;;;4.88;1.35;;;23.10;67.60;;;;;;6293795;22;20008;-95
2021/08/13 16:54:20;;;;;;;7.97;1.55;;;23.00;68.00;;;;;;6290489;22;20060;-96
2021/08/13 16:56:46;;;;;;;5.57;1.58;;;22.90;68.40;;;;;;6288096;22;20008;-94
2021/08/13 16:59:11;;;;;;;7.93;1.67;;;23.00;68.60;;;;;;6286206;22;19995;-93
2021/08/13 17:01:50;;;;;;;7.95;1.60;;;23.10;68.70;;;;;;6281969;22;20451;-96
2021/08/13 17:04:17;;;;;;;6.85;1.52;;;23.10;68.40;;;;;;6281159;22;19996;-96
2021/08/13 17:06:42;;;;;;;4.35;1.50;;;23.10;68.10;;;;;;6281712;22;20003;-95
2021/08/13 17:09:09;;;;;;;3.97;1.30;;;23.00;68.20;;;;;;6287447;22;20003;-95
2021/08/13 17:11:37;;;;;;;6.20;1.77;;;22.90;68.60;;;;;;6282385;22;20000;-93
2021/08/13 17:14:02;;;;;;;3.42;1.48;;;22.90;69.00;;;;;;6279767;22;20012;-94
2021/08/13 17:16:28;;;;;;;4.75;1.42;;;22.80;69.10;;;;;;6251696;22;20011;-95
2021/08/13 17:18:54;;;;;;;8.40;1.50;;;22.80;69.30;;;;;;6282511;22;20343;-95
2021/08/13 17:21:20;;;;;;;5.40;1.60;;;22.80;69.40;;;;;;6279201;22;20015;-93
2021/08/13 17:23:49;;;;;;;5.28;1.20;;;22.70;69.50;;;;;;6283387;22;19995;-95
2021/08/13 17:26:17;;;;;;;4.03;1.45;;;22.70;69.70;;;;;;6287196;22;20008;-95
2021/08/13 17:28:43;;;;;;;5.20;1.60;;;22.60;70.10;;;;;;6279581;22;20063;-95
2021/08/13 17:31:09;;;;;;;7.90;1.70;;;22.60;70.60;;;;;;6280812;22;20007;-94
2021/08/13 17:33:34;;;;;;;4.03;1.52;;;22.50;71.10;;;;;;6281187;22;20008;-94
2021/08/13 17:36:00;;;;;;;4.15;1.20;;;22.40;71.40;;;;;;6283653;22;20000;-94
2021/08/13 17:38:26;;;;;;;2.28;0.88;;;22.30;71.50;;;;;;6284039;22;20011;-94
2021/08/13 17:40:56;;;;;;;7.05;1.80;;;22.10;72.00;;;;;;6285818;22;20019;-94
2021/08/13 17:43:22;;;;;;;4.85;1.25;;;21.90;72.30;;;;;;6282410;22;20055;-93
2021/08/13 17:45:48;;;;;;;5.85;1.48;;;21.80;73.00;;;;;;6282428;22;20423;-94
2021/08/13 17:48:13;;;;;;;5.88;1.20;;;21.70;73.30;;;;;;6285575;22;20358;-94
2021/08/13 17:50:41;;;;;;;5.80;1.38;;;21.50;73.60;;;;;;6278966;22;20034;-93
2021/08/13 17:53:07;;;;;;;4.35;1.23;;;21.40;74.20;;;;;;6278245;22;20008;-94
2021/08/13 17:55:33;;;;;;;7.00;1.00;;;21.30;74.60;;;;;;6282817;22;20343;-96
2021/08/13 17:57:58;;;;;;;9.00;1.80;;;21.20;74.90;;;;;;6281813;22;20424;-93
2021/08/13 18:00:24;;;;;;;4.88;1.30;;;21.10;75.20;;;;;;6282750;22;20101;-94
2021/08/13 18:02:54;;;;;;;4.85;1.73;;;21.10;75.60;;;;;;6283241;22;20018;-95
2021/08/13 18:05:20;;;;;;;;;;;21.00;75.90;;;;;;6284866;22;20030;-94
2021/08/13 18:07:46;;;;;;;7.03;2.10;;;20.90;76.10;;;;;;6280221;22;19903;-94
2021/08/13 18:10:12;;;;;;;5.75;1.77;;;20.90;76.40;;;;;;6280151;22;20007;-95
2021/08/13 18:12:39;;;;;;;5.22;1.10;;;20.80;76.70;;;;;;6279490;22;19999;-94
2021/08/13 18:15:10;;;;;;;8.93;1.67;;;20.80;77.20;;;;;;6288419;22;20000;-95
2021/08/13 18:17:35;;;;;;;7.68;1.90;;;20.70;77.50;;;;;;6282644;22;19988;-93
2021/08/13 18:20:01;;;;;;;5.10;1.73;;;20.70;77.90;;;;;;6281003;22;20023;-93
2021/08/13 18:22:28;;;;;;;7.43;1.55;;;20.70;78.30;;;;;;6277388;22;20008;-94
2021/08/13 18:24:54;;;;;;;6.60;1.27;;;20.60;78.60;;;;;;6277319;22;20322;-93
2021/08/13 18:27:22;;;;;;;10.52;1.50;;;20.60;79.00;;;;;;6285210;22;20007;-95
2021/08/13 18:29:47;;;;;;;8.32;1.63;;;20.50;79.20;;;;;;6284899;22;20011;-92
2021/08/13 18:32:14;;;;;;;5.45;1.45;;;20.50;79.20;;;;;;6282658;22;20004;-96
2021/08/13 18:34:40;;;;;;;6.30;1.20;;;20.50;79.00;;;;;;6279576;22;20022;-93
2021/08/13 18:37:06;;;;;;;5.47;1.48;;;20.40;78.50;;;;;;6276731;22;20011;-93
2021/08/13 18:42:24;;;;;;;8.52;1.45;;;20.20;78.00;;;;;;6294445;22;20098;-93
2021/08/13 18:44:50;;;;;;;8.25;1.65;;;20.20;78.30;;;;;;6315087;22;20003;-96
2021/08/13 18:47:16;;;;;;;3.75;1.17;;;20.10;78.30;;;;;;6285809;22;20014;-94
2021/08/13 18:49:41;;;;;;;6.90;1.73;;;20.00;78.30;;;;;;6305807;22;20003;-95
2021/08/13 18:52:07;;;;;;;6.57;1.65;;;19.90;78.60;;;;;;6281022;22;20030;-94
2021/08/13 18:54:36;;;;;;;7.93;1.73;;;19.90;78.90;;;;;;6279677;22;20014;-96
2021/08/13 18:57:02;;;;;;;9.98;1.80;;;19.80;79.30;;;;;;6280169;22;20010;-94
2021/08/13 18:59:28;;;;;;;3.88;1.30;;;19.80;79.50;;;;;;6279648;22;20003;-95
2021/08/13 19:01:54;;;;;;;7.28;1.55;;;19.70;79.60;;;;;;6280878;22;20003;-93
2021/08/13 19:04:20;;;;;;;5.55;1.70;;;19.70;79.90;;;;;;6279388;22;20462;-95
2021/08/13 19:06:45;;;;;;;7.68;1.60;;;19.70;80.20;;;;;;6280900;22;20003;-92
2021/08/13 19:09:11;;;;;;;6.30;1.73;;;19.70;80.40;;;;;;6280606;22;20077;-93
2021/08/13 19:11:37;;;;;;;10.75;1.77;;;19.70;80.40;;;;;;6280255;22;20461;-95
2021/08/13 19:14:03;;;;;;;10.88;2.00;;;19.70;80.60;;;;;;6280739;22;20007;-95
2021/08/13 19:16:28;;;;;;;4.72;1.70;;;19.60;80.80;;;;;;6280287;22;20014;-96
2021/08/13 19:18:57;;;;;;;7.90;1.83;;;19.60;81.10;;;;;;6281301;22;20011;-94